Time;durP1;ratioP1;P1;durP2;ratioP2;P2;SDS_P1;SDS_P2;PMS_P1;PMS_P2;Temp;Humidity;BMP_temperature;BMP_pressure;BME280_temperature;BME280_humidity;BME280_pressure;Samples;Min_cycle;Max_cycle;Signal;HPM_P1;HPM_P2
2022/09/12 00:01:06;;;;;;;8.60;6.72;;;11.60;99.90;;;;;;5010734;28;20176;-74
2022/09/12 00:03:32;;;;;;;8.07;7.28;;;11.50;99.90;;;;;;5011065;28;20634;-74
2022/09/12 00:05:58;;;;;;;7.68;7.03;;;11.50;99.90;;;;;;5011246;28;20207;-74
2022/09/12 00:08:24;;;;;;;7.63;6.88;;;11.50;99.90;;;;;;5012009;28;20286;-74
2022/09/12 00:10:49;;;;;;;7.18;6.57;;;11.50;99.90;;;;;;5010538;28;20642;-74
2022/09/12 00:13:15;;;;;;;7.07;6.47;;;11.40;99.90;;;;;;5010993;28;20176;-74
2022/09/12 00:15:43;;;;;;;8.18;7.38;;;11.30;99.90;;;;;;5011141;28;20202;-73
2022/09/12 00:18:13;;;;;;;7.10;6.50;;;11.30;99.90;;;;;;5011673;28;20184;-73
2022/09/12 00:20:44;;;;;;;8.32;6.82;;;11.30;99.90;;;;;;5011616;28;20207;-73
2022/09/12 00:23:10;;;;;;;7.50;6.80;;;11.40;99.90;;;;;;5011529;28;20189;-73
2022/09/12 00:25:43;;;;;;;7.47;6.78;;;11.40;99.90;;;;;;5010316;28;20223;-73
2022/09/12 00:28:10;;;;;;;7.38;6.60;;;11.40;99.90;;;;;;5009813;28;20298;-73
2022/09/12 00:30:43;;;;;;;13.15;7.93;;;11.40;99.90;;;;;;5009950;28;20176;-73
2022/09/12 00:33:10;;;;;;;8.15;7.38;;;11.40;99.90;;;;;;5011771;28;20576;-73
2022/09/12 00:35:47;;;;;;;7.55;6.93;;;11.30;99.90;;;;;;5010231;28;20214;-73
2022/09/12 00:38:14;;;;;;;8.73;7.72;;;11.30;99.90;;;;;;5010250;28;20289;-75
2022/09/12 00:40:41;;;;;;;7.80;7.03;;;11.30;99.90;;;;;;5011509;28;20179;-74
2022/09/12 00:43:12;;;;;;;7.43;6.82;;;11.30;99.90;;;;;;5010879;28;20176;-74
2022/09/12 00:45:38;;;;;;;7.18;6.57;;;11.20;99.90;;;;;;5010363;28;20387;-74
2022/09/12 00:48:04;;;;;;;10.40;7.65;;;11.20;99.90;;;;;;5010046;28;20302;-74
2022/09/12 00:50:31;;;;;;;8.18;7.35;;;11.20;99.90;;;;;;5009970;28;20180;-74
2022/09/12 00:53:04;;;;;;;8.70;7.20;;;11.20;99.90;;;;;;5012088;28;20645;-74
2022/09/12 00:55:41;;;;;;;8.57;7.30;;;11.20;99.90;;;;;;5010776;28;20195;-73
2022/09/12 00:58:45;;;;;;;8.57;7.78;;;11.20;99.90;;;;;;5011426;28;20194;-73
2022/09/12 01:01:11;;;;;;;9.73;8.20;;;11.20;99.90;;;;;;5011269;28;20189;-73
2022/09/12 01:03:37;;;;;;;9.27;8.02;;;11.20;99.90;;;;;;5011044;28;20175;-73
2022/09/12 01:06:19;;;;;;;9.38;8.38;;;11.30;99.90;;;;;;5009709;28;20203;-73
2022/09/12 01:08:47;;;;;;;8.38;7.68;;;11.30;99.90;;;;;;5009828;28;20200;-73
2022/09/12 01:11:14;;;;;;;10.73;8.70;;;11.20;99.90;;;;;;5010943;28;20172;-73
2022/09/12 01:13:40;;;;;;;9.23;8.30;;;11.10;99.90;;;;;;5009661;28;20650;-73
2022/09/12 01:16:07;;;;;;;8.27;7.47;;;11.20;99.90;;;;;;5009660;28;20199;-73
2022/09/12 01:19:05;;;;;;;8.40;7.25;;;11.00;99.90;;;;;;5009559;28;20184;-73
2022/09/12 01:21:45;;;;;;;10.20;7.32;;;11.10;99.90;;;;;;5011864;28;20228;-73
2022/09/12 01:24:14;;;;;;;7.55;6.95;;;11.00;99.90;;;;;;5009540;28;20173;-73
2022/09/12 01:26:57;;;;;;;9.48;8.07;;;11.00;99.90;;;;;;5009442;28;20204;-73
2022/09/12 01:29:50;;;;;;;9.15;8.20;;;11.00;99.90;;;;;;5010885;28;20245;-73
2022/09/12 01:32:28;;;;;;;7.63;6.93;;;11.00;99.90;;;;;;5009576;28;20220;-73
2022/09/12 01:35:30;;;;;;;7.72;7.13;;;10.90;99.90;;;;;;5010560;28;20199;-73
2022/09/12 01:38:02;;;;;;;7.38;6.70;;;10.90;99.90;;;;;;5010415;28;20229;-73
2022/09/12 01:40:44;;;;;;;19.35;7.50;;;10.90;99.90;;;;;;5012256;28;20247;-73
2022/09/12 01:43:28;;;;;;;8.45;7.75;;;10.80;99.90;;;;;;5013476;28;20175;-73
2022/09/12 01:46:22;;;;;;;8.90;8.10;;;10.80;99.90;;;;;;5012760;28;20199;-73
2022/09/12 01:49:01;;;;;;;8.40;7.53;;;10.80;99.90;;;;;;5028046;28;20226;-73
2022/09/12 01:51:31;;;;;;;8.88;7.97;;;10.80;99.90;;;;;;5013852;28;20279;-73
2022/09/12 01:54:09;;;;;;;8.43;7.63;;;10.80;99.90;;;;;;5012786;28;20254;-73
2022/09/12 01:56:38;;;;;;;8.10;7.45;;;10.80;99.90;;;;;;5013113;28;20199;-73
2022/09/12 01:59:28;;;;;;;8.70;7.35;;;10.80;99.90;;;;;;5013849;28;20172;-73
2022/09/12 02:02:13;;;;;;;8.95;8.15;;;10.80;99.90;;;;;;5012394;28;20657;-73
2022/09/12 02:04:51;;;;;;;8.23;7.50;;;10.80;99.90;;;;;;5013969;28;20168;-73
2022/09/12 02:07:26;;;;;;;9.23;7.57;;;10.80;99.90;;;;;;5012405;28;20579;-73
2022/09/12 02:10:09;;;;;;;8.30;7.50;;;10.70;99.90;;;;;;5012429;28;20175;-73
2022/09/12 02:12:44;;;;;;;9.13;8.32;;;10.70;99.90;;;;;;5012918;28;20168;-73
2022/09/12 02:15:11;;;;;;;8.90;8.00;;;10.70;99.90;;;;;;5013124;28;20199;-73
2022/09/12 02:17:41;;;;;;;8.95;8.05;;;10.70;99.90;;;;;;5012579;28;20180;-73
2022/09/12 02:20:28;;;;;;;12.60;8.10;;;10.70;99.90;;;;;;5012373;28;20186;-73
2022/09/12 02:22:56;;;;;;;27.55;7.60;;;10.70;99.90;;;;;;5012872;28;20175;-73
2022/09/12 02:25:24;;;;;;;31.00;8.00;;;10.70;99.90;;;;;;5013351;28;20263;-73
2022/09/12 02:28:00;;;;;;;11.98;7.57;;;10.60;99.90;;;;;;5012159;28;20204;-73
2022/09/12 02:30:36;;;;;;;8.65;7.75;;;10.50;99.90;;;;;;5013614;28;20228;-73
2022/09/12 02:33:25;;;;;;;8.57;7.53;;;10.50;99.90;;;;;;5012142;28;20168;-73
2022/09/12 02:36:12;;;;;;;16.98;8.70;;;10.50;99.90;;;;;;5013139;28;20196;-74
2022/09/12 02:38:46;;;;;;;33.67;10.00;;;10.40;99.90;;;;;;5012253;28;20711;-74
2022/09/12 02:41:16;;;;;;;52.78;10.27;;;10.30;99.90;;;;;;5012807;28;20179;-74
2022/09/12 02:43:42;;;;;;;9.75;8.73;;;10.40;99.90;;;;;;5012188;28;20232;-74
2022/09/12 02:46:14;;;;;;;12.32;8.30;;;10.40;99.90;;;;;;5011896;28;20203;-73
2022/09/12 02:48:42;;;;;;;9.60;7.63;;;10.40;99.90;;;;;;5013238;28;20199;-73
2022/09/12 02:51:09;;;;;;;26.73;7.45;;;10.50;99.90;;;;;;5011492;28;20184;-73
2022/09/12 02:53:35;;;;;;;25.40;7.55;;;10.60;99.90;;;;;;5012572;28;20244;-73
2022/09/12 02:56:03;;;;;;;30.25;8.70;;;10.50;99.90;;;;;;5011644;28;20195;-73
2022/09/12 02:58:30;;;;;;;48.17;9.50;;;10.40;99.90;;;;;;5011676;28;20187;-73
2022/09/12 03:01:21;;;;;;;54.83;9.75;;;10.30;99.90;;;;;;5012810;28;20179;-73
2022/09/12 03:04:08;;;;;;;35.15;9.73;;;10.30;99.90;;;;;;5012782;28;20171;-73
2022/09/12 03:06:59;;;;;;;19.50;8.98;;;10.40;99.90;;;;;;5011897;28;20257;-73
2022/09/12 03:09:52;;;;;;;28.17;8.98;;;10.50;99.90;;;;;;5011510;28;20241;-73
2022/09/12 03:12:42;;;;;;;9.65;8.65;;;10.50;99.90;;;;;;5011607;28;20574;-73
2022/09/12 03:15:33;;;;;;;13.48;8.73;;;10.50;99.90;;;;;;5011344;28;20211;-73
2022/09/12 03:18:35;;;;;;;13.80;8.98;;;10.50;99.90;;;;;;5012252;28;20183;-73
2022/09/12 03:21:27;;;;;;;18.27;9.00;;;10.40;99.90;;;;;;5012480;28;20180;-73
2022/09/12 03:24:11;;;;;;;14.82;8.48;;;10.40;99.90;;;;;;5012169;28;20175;-73
2022/09/12 03:26:54;;;;;;;10.32;8.57;;;10.30;99.90;;;;;;5012770;28;20329;-73
2022/09/12 03:29:20;;;;;;;7.20;6.60;;;10.30;99.90;;;;;;5013168;28;20207;-73
2022/09/12 03:31:54;;;;;;;8.27;7.03;;;10.20;99.90;;;;;;5011526;28;20180;-73
2022/09/12 03:34:22;;;;;;;7.65;7.05;;;10.20;99.90;;;;;;5011159;28;20187;-73
2022/09/12 03:36:48;;;;;;;8.05;7.00;;;10.20;99.90;;;;;;5011166;28;20228;-73
2022/09/12 03:39:14;;;;;;;17.25;8.55;;;10.20;99.90;;;;;;5011089;28;20563;-73
2022/09/12 03:41:39;;;;;;;9.60;8.52;;;10.00;99.90;;;;;;5011123;28;20668;-73
2022/09/12 03:44:05;;;;;;;10.18;8.82;;;9.90;99.90;;;;;;5013037;28;20179;-73
2022/09/12 03:46:31;;;;;;;8.75;8.00;;;10.00;99.90;;;;;;5011279;28;20199;-73
2022/09/12 03:48:56;;;;;;;8.45;7.75;;;9.90;99.90;;;;;;5011193;28;20219;-73
2022/09/12 03:51:22;;;;;;;8.88;7.65;;;9.90;99.90;;;;;;5010769;28;20198;-73
2022/09/12 03:53:48;;;;;;;9.45;8.27;;;9.90;99.90;;;;;;5011501;28;20175;-73
2022/09/12 03:56:13;;;;;;;8.18;7.47;;;9.90;99.90;;;;;;5011923;28;20183;-72
2022/09/12 03:58:40;;;;;;;9.82;7.07;;;9.80;99.90;;;;;;5010812;28;20633;-72
2022/09/12 04:01:11;;;;;;;7.60;6.80;;;9.90;99.90;;;;;;5012265;28;20187;-73
2022/09/12 04:03:37;;;;;;;7.63;6.93;;;9.90;99.90;;;;;;5010731;28;20180;-73
2022/09/12 04:06:03;;;;;;;7.45;6.75;;;9.90;99.90;;;;;;5011839;28;20192;-73
2022/09/12 04:08:29;;;;;;;7.30;6.70;;;9.90;99.90;;;;;;5010734;28;20212;-73
2022/09/12 04:11:02;;;;;;;7.72;7.03;;;9.90;99.90;;;;;;5010707;28;20175;-73
2022/09/12 04:13:28;;;;;;;7.50;6.82;;;9.90;99.90;;;;;;5012083;28;20160;-73
2022/09/12 04:16:00;;;;;;;7.50;6.65;;;9.90;99.90;;;;;;5010513;28;20192;-73
2022/09/12 04:18:26;;;;;;;7.65;6.53;;;9.90;99.90;;;;;;5010417;28;20215;-73
2022/09/12 04:20:51;;;;;;;8.63;6.53;;;9.90;99.90;;;;;;5010813;28;20183;-73
2022/09/12 04:23:17;;;;;;;10.32;6.68;;;9.90;99.90;;;;;;5011559;28;20183;-73
2022/09/12 04:25:43;;;;;;;7.25;6.05;;;9.80;99.90;;;;;;5010316;28;20200;-73
2022/09/12 04:28:08;;;;;;;7.20;6.10;;;9.80;99.90;;;;;;5011466;28;20211;-73
2022/09/12 04:30:34;;;;;;;10.95;6.78;;;9.70;99.90;;;;;;5011782;28;20658;-73
2022/09/12 04:32:59;;;;;;;7.00;6.30;;;9.70;99.90;;;;;;5011490;28;20580;-73
2022/09/12 04:35:26;;;;;;;6.93;6.35;;;9.70;99.90;;;;;;5012150;28;20223;-73
2022/09/12 04:37:51;;;;;;;6.72;6.22;;;9.70;99.90;;;;;;5010114;28;20183;-73
2022/09/12 04:40:17;;;;;;;7.07;6.47;;;9.60;99.90;;;;;;5010266;28;20654;-73
2022/09/12 04:42:43;;;;;;;8.60;6.70;;;9.60;99.90;;;;;;5010220;28;20175;-73
2022/09/12 04:45:09;;;;;;;13.50;6.97;;;9.70;99.90;;;;;;5011252;28;20223;-73
2022/09/12 04:47:35;;;;;;;16.48;7.47;;;9.70;99.90;;;;;;5010796;28;20215;-73
2022/09/12 04:50:01;;;;;;;21.05;7.72;;;9.70;99.90;;;;;;5010367;28;20197;-73
2022/09/12 04:52:26;;;;;;;32.13;7.30;;;9.70;99.90;;;;;;5010071;28;20191;-73
2022/09/12 04:54:52;;;;;;;24.67;7.15;;;9.70;99.90;;;;;;5010261;28;20188;-73
2022/09/12 04:57:17;;;;;;;15.85;6.95;;;9.70;99.90;;;;;;5009927;28;20180;-73
2022/09/12 04:59:43;;;;;;;37.60;7.20;;;9.80;99.90;;;;;;5011368;28;20172;-74
2022/09/12 05:02:09;;;;;;;29.25;7.85;;;9.70;99.90;;;;;;5010448;28;20630;-73
2022/09/12 05:04:34;;;;;;;10.90;7.68;;;9.70;99.90;;;;;;5009858;28;20263;-73
2022/09/12 05:07:42;;;;;;;14.55;7.57;;;9.70;99.90;;;;;;5009945;28;20244;-73
2022/09/12 05:10:08;;;;;;;36.72;7.97;;;9.80;99.90;;;;;;5009824;28;20183;-73
2022/09/12 05:12:34;;;;;;;13.07;6.40;;;9.80;99.90;;;;;;5011289;28;20183;-73
2022/09/12 05:15:00;;;;;;;6.57;6.05;;;9.90;99.90;;;;;;5010654;28;20190;-73
2022/09/12 05:17:28;;;;;;;5.50;5.00;;;9.90;99.90;;;;;;5011421;28;20175;-73
2022/09/12 05:19:54;;;;;;;5.40;5.00;;;10.00;99.90;;;;;;5011885;28;20180;-73
2022/09/12 05:22:20;;;;;;;5.72;4.72;;;10.10;99.90;;;;;;5011350;28;20190;-73
2022/09/12 05:24:47;;;;;;;5.28;4.78;;;10.10;99.90;;;;;;5012877;28;20186;-73
2022/09/12 05:27:13;;;;;;;7.95;5.43;;;10.20;99.90;;;;;;5012870;28;20211;-73
2022/09/12 05:29:38;;;;;;;9.30;5.28;;;10.30;99.90;;;;;;5012657;28;20210;-73
2022/09/12 05:32:04;;;;;;;6.47;5.50;;;10.40;99.90;;;;;;5010460;28;20274;-73
2022/09/12 05:34:29;;;;;;;8.88;5.65;;;10.30;99.90;;;;;;5011854;28;20175;-73
2022/09/12 05:36:55;;;;;;;9.15;6.55;;;10.40;99.90;;;;;;5010849;28;20587;-74
2022/09/12 05:39:21;;;;;;;15.15;7.40;;;10.60;99.90;;;;;;5010131;28;20186;-73
2022/09/12 05:41:46;;;;;;;6.75;6.15;;;10.80;99.90;;;;;;5010113;28;20312;-73
2022/09/12 05:44:13;;;;;;;6.85;6.20;;;10.90;99.90;;;;;;5011280;28;20176;-73
2022/09/12 05:46:42;;;;;;;6.07;5.57;;;11.00;99.90;;;;;;5011106;28;20235;-73
2022/09/12 05:49:10;;;;;;;15.52;6.15;;;11.20;99.90;;;;;;5010690;28;20203;-73
2022/09/12 05:51:39;;;;;;;7.28;5.60;;;11.40;99.90;;;;;;5010070;28;20253;-73
2022/09/12 05:54:07;;;;;;;7.03;6.00;;;11.50;99.90;;;;;;5011285;28;20195;-73
2022/09/12 05:56:37;;;;;;;7.55;5.60;;;11.40;99.90;;;;;;5009534;28;20231;-73
2022/09/12 05:59:15;;;;;;;6.57;5.43;;;11.50;99.90;;;;;;5009548;28;20241;-73
2022/09/12 06:01:41;;;;;;;7.03;6.32;;;11.70;99.90;;;;;;5010237;28;20203;-73
2022/09/12 06:04:07;;;;;;;8.68;6.40;;;11.80;99.90;;;;;;5010719;28;20205;-73
2022/09/12 06:06:36;;;;;;;10.02;7.07;;;11.90;99.90;;;;;;5009363;28;20203;-73
2022/09/12 06:09:04;;;;;;;8.55;7.03;;;11.90;99.90;;;;;;5009260;28;20204;-73
2022/09/12 06:11:36;;;;;;;8.60;6.03;;;12.00;99.90;;;;;;5010726;28;20176;-73
2022/09/12 06:14:02;;;;;;;9.48;6.50;;;12.00;99.90;;;;;;5009301;28;20168;-73
2022/09/12 06:16:30;;;;;;;12.02;7.40;;;12.30;99.90;;;;;;5009446;28;20286;-73
2022/09/12 06:18:58;;;;;;;23.05;7.63;;;12.30;99.90;;;;;;5009033;28;20179;-73
2022/09/12 06:21:25;;;;;;;14.73;7.95;;;12.30;99.90;;;;;;5010672;28;20172;-73
2022/09/12 06:23:55;;;;;;;23.35;9.38;;;12.40;99.90;;;;;;5009115;28;20215;-73
2022/09/12 06:26:24;;;;;;;29.58;9.82;;;12.50;99.90;;;;;;5009676;28;20237;-73
2022/09/12 06:28:50;;;;;;;17.30;9.57;;;12.60;99.90;;;;;;5012166;28;20221;-73
2022/09/12 06:31:20;;;;;;;12.25;8.90;;;12.70;99.90;;;;;;5012491;28;20540;-74
2022/09/12 06:33:48;;;;;;;12.07;8.40;;;12.80;99.90;;;;;;5012215;28;20171;-74
2022/09/12 06:36:25;;;;;;;16.50;9.15;;;13.00;99.90;;;;;;5014128;28;20203;-73
2022/09/12 06:38:59;;;;;;;14.05;10.07;;;13.00;99.90;;;;;;5012989;28;20179;-74
2022/09/12 06:41:26;;;;;;;20.40;9.57;;;13.10;99.90;;;;;;5012078;28;20698;-73
2022/09/12 06:43:52;;;;;;;13.70;9.15;;;13.20;99.90;;;;;;5013386;28;20184;-73
2022/09/12 06:46:19;;;;;;;20.40;10.77;;;13.40;99.90;;;;;;5011866;28;20195;-73
2022/09/12 06:48:45;;;;;;;12.60;9.43;;;13.50;99.90;;;;;;5012073;28;20211;-73
2022/09/12 06:51:13;;;;;;;14.73;10.25;;;13.50;99.90;;;;;;5013608;28;20194;-73
2022/09/12 06:53:40;;;;;;;14.00;9.98;;;13.30;99.90;;;;;;5012644;28;20374;-73
2022/09/12 06:56:10;;;;;;;17.27;10.75;;;13.50;99.90;;;;;;5011946;28;20297;-73
2022/09/12 06:58:36;;;;;;;29.20;11.38;;;13.70;99.90;;;;;;5012842;28;20692;-73
2022/09/12 07:01:04;;;;;;;42.28;10.65;;;13.80;99.90;;;;;;5012476;28;20187;-73
2022/09/12 07:03:31;;;;;;;33.38;11.35;;;13.70;99.90;;;;;;5012212;28;20203;-73
2022/09/12 07:06:00;;;;;;;18.40;10.55;;;13.60;99.90;;;;;;5011489;28;20294;-73
2022/09/12 07:08:28;;;;;;;12.18;10.63;;;13.90;99.90;;;;;;5011908;28;20215;-73
2022/09/12 07:10:53;;;;;;;11.00;9.90;;;14.00;99.90;;;;;;5012392;28;20271;-73
2022/09/12 07:13:24;;;;;;;11.02;9.90;;;14.20;99.90;;;;;;5012884;28;20199;-73
2022/09/12 07:16:09;;;;;;;13.02;10.45;;;14.40;99.90;;;;;;5011384;28;20629;-71
2022/09/12 07:18:39;;;;;;;12.13;10.60;;;14.60;99.90;;;;;;5011718;28;20638;-71
2022/09/12 07:21:09;;;;;;;13.23;11.00;;;14.60;99.90;;;;;;5012227;28;20266;-71
2022/09/12 07:23:35;;;;;;;13.27;11.05;;;14.80;99.90;;;;;;5011490;28;20343;-71
2022/09/12 07:26:03;;;;;;;16.63;10.27;;;14.90;99.90;;;;;;5011028;28;20764;-71
2022/09/12 07:28:30;;;;;;;18.45;10.85;;;15.00;99.90;;;;;;5011490;28;20307;-71
2022/09/12 07:30:57;;;;;;;16.25;11.30;;;15.10;99.90;;;;;;5011205;28;20203;-72
2022/09/12 07:33:26;;;;;;;11.80;10.70;;;15.10;99.90;;;;;;5011708;28;20186;-72
2022/09/12 07:36:01;;;;;;;13.43;10.65;;;15.20;99.90;;;;;;5011378;28;20278;-71
2022/09/12 07:38:26;;;;;;;12.18;10.48;;;15.00;99.90;;;;;;5011206;28;20171;-72
2022/09/12 07:40:52;;;;;;;15.10;10.35;;;15.20;99.90;;;;;;5012533;28;20194;-72
2022/09/12 07:43:18;;;;;;;13.65;10.35;;;15.20;99.90;;;;;;5011986;28;20188;-72
2022/09/12 07:46:03;;;;;;;15.43;10.85;;;15.20;99.90;;;;;;5012258;28;20297;-72
2022/09/12 07:48:29;;;;;;;14.48;10.35;;;15.30;99.90;;;;;;5011744;28;20214;-72
2022/09/12 07:51:03;;;;;;;11.25;9.40;;;15.60;99.90;;;;;;5012366;28;20172;-73
2022/09/12 07:53:42;;;;;;;13.43;10.05;;;15.70;99.90;;;;;;5012942;28;20182;-72
2022/09/12 07:56:18;;;;;;;10.50;9.55;;;15.70;99.90;;;;;;5012100;28;20250;-72
2022/09/12 07:58:45;;;;;;;10.32;9.43;;;15.90;99.90;;;;;;5012526;28;20179;-72
2022/09/12 08:01:22;;;;;;;9.77;8.82;;;15.80;99.90;;;;;;5013251;28;20168;-72
2022/09/12 08:03:52;;;;;;;10.15;9.23;;;15.90;99.90;;;;;;5011861;28;20549;-72
2022/09/12 08:06:19;;;;;;;9.82;8.82;;;15.90;99.90;;;;;;5012338;28;20678;-72
2022/09/12 08:08:46;;;;;;;9.18;8.38;;;16.10;99.90;;;;;;5012685;28;20203;-72
2022/09/12 08:11:14;;;;;;;10.00;9.00;;;16.40;99.90;;;;;;5011722;28;20179;-72
2022/09/12 08:13:41;;;;;;;9.70;8.52;;;16.30;99.90;;;;;;5011333;28;20176;-72
2022/09/12 08:16:16;;;;;;;13.23;8.90;;;16.40;99.90;;;;;;5012102;28;20282;-73
2022/09/12 08:18:43;;;;;;;9.38;8.57;;;16.40;99.90;;;;;;5012960;28;20172;-74
2022/09/12 08:21:15;;;;;;;9.55;8.65;;;16.60;99.90;;;;;;5011568;28;20176;-73
2022/09/12 08:23:42;;;;;;;9.90;9.00;;;16.60;99.90;;;;;;5012774;28;20237;-73
2022/09/12 08:26:09;;;;;;;10.95;9.10;;;16.80;99.90;;;;;;5011992;28;20227;-73
2022/09/12 08:28:35;;;;;;;10.30;9.30;;;16.70;99.90;;;;;;5013174;28;20278;-73
2022/09/12 08:31:13;;;;;;;8.88;8.07;;;17.10;99.90;;;;;;5011294;28;20182;-74
2022/09/12 08:33:58;;;;;;;10.25;9.35;;;17.20;99.90;;;;;;5010831;28;20634;-73
2022/09/12 08:36:26;;;;;;;9.82;8.82;;;17.40;99.90;;;;;;5011080;28;20204;-73
2022/09/12 08:39:11;;;;;;;9.95;8.93;;;17.30;99.90;;;;;;5011489;28;20191;-73
2022/09/12 08:41:39;;;;;;;10.18;9.38;;;17.40;99.90;;;;;;5011687;28;20171;-73
2022/09/12 08:44:37;;;;;;;11.75;10.45;;;17.10;99.90;;;;;;5011208;28;20176;-73
2022/09/12 08:47:21;;;;;;;10.93;10.02;;;16.80;99.90;;;;;;5047112;28;20244;-73
2022/09/12 08:50:02;;;;;;;11.73;10.60;;;16.80;99.90;;;;;;5011958;28;20199;-73
2022/09/12 08:52:57;;;;;;;11.98;10.82;;;16.90;99.90;;;;;;5012008;28;20202;-73
2022/09/12 08:55:36;;;;;;;10.77;9.88;;;16.80;99.90;;;;;;5012133;28;20195;-72
2022/09/12 08:58:41;;;;;;;12.38;11.27;;;17.10;99.90;;;;;;5011673;28;20171;-73
2022/09/12 09:01:28;;;;;;;10.93;9.90;;;16.90;99.90;;;;;;5010818;28;20199;-73
2022/09/12 09:04:36;;;;;;;11.68;10.48;;;16.90;99.90;;;;;;5009824;28;20168;-73
2022/09/12 09:07:14;;;;;;;13.05;11.95;;;17.00;99.90;;;;;;5009806;28;20207;-73
2022/09/12 09:10:09;;;;;;;11.38;10.38;;;17.00;99.90;;;;;;5011142;28;20205;-72
2022/09/12 09:13:08;;;;;;;11.57;10.55;;;17.10;99.90;;;;;;5011305;28;20294;-73
2022/09/12 09:16:13;;;;;;;11.27;10.27;;;17.20;99.90;;;;;;5010904;28;20206;-73
2022/09/12 09:18:41;;;;;;;11.73;10.60;;;17.40;99.90;;;;;;5010034;28;20168;-72
2022/09/12 09:21:47;;;;;;;12.27;11.25;;;17.50;99.90;;;;;;5009951;28;20255;-72
2022/09/12 09:24:18;;;;;;;14.65;11.55;;;17.70;99.90;;;;;;5011371;28;20184;-71
2022/09/12 09:27:27;;;;;;;18.00;16.17;;;17.80;99.90;;;;;;5009847;28;20218;-71
2022/09/12 09:29:54;;;;;;;15.10;12.25;;;18.00;99.90;;;;;;5007695;28;20203;-71
2022/09/12 09:35:49;;;;;;;14.98;13.60;;;18.20;99.90;;;;;;5010917;28;20230;-71
2022/09/12 09:38:18;;;;;;;13.02;11.80;;;18.30;99.90;;;;;;5010706;28;20171;-71
2022/09/12 09:40:53;;;;;;;20.60;12.45;;;18.30;99.90;;;;;;5009376;28;20243;-71
2022/09/12 09:43:44;;;;;;;17.92;11.80;;;18.50;99.90;;;;;;5010258;28;20167;-71
2022/09/12 09:46:10;;;;;;;18.13;13.38;;;18.60;99.90;;;;;;5009180;28;20200;-71
2022/09/12 09:48:40;;;;;;;56.10;32.47;;;18.70;99.90;;;;;;5009602;28;20249;-71
2022/09/12 09:51:24;;;;;;;13.98;10.05;;;18.80;99.90;;;;;;5010808;28;20237;-72
2022/09/12 09:54:09;;;;;;;17.40;12.45;;;18.80;99.90;;;;;;5009848;28;20176;-72
2022/09/12 09:57:26;;;;;;;10.73;9.70;;;19.00;99.90;;;;;;5009275;28;20191;-72
2022/09/12 09:59:55;;;;;;;10.10;8.07;;;19.20;99.90;;;;;;5010130;28;20176;-72
2022/09/12 10:05:56;;;;;;;11.18;6.88;;;19.30;99.90;;;;;;5013960;28;20241;-73
2022/09/12 10:08:22;;;;;;;8.10;7.28;;;19.50;99.90;;;;;;5014003;28;20191;-73
2022/09/12 10:11:04;;;;;;;7.97;7.03;;;19.60;99.90;;;;;;5012592;28;20245;-73
2022/09/12 10:13:53;;;;;;;9.55;8.20;;;19.70;99.90;;;;;;5012522;28;20172;-73
2022/09/12 10:16:24;;;;;;;6.38;5.78;;;19.80;99.90;;;;;;5004432;28;20237;-73
2022/09/12 10:18:51;;;;;;;6.93;6.32;;;19.90;99.90;;;;;;5012898;28;20176;-73
2022/09/12 10:21:23;;;;;;;7.13;5.45;;;20.10;99.90;;;;;;5012658;28;20704;-74
2022/09/12 10:24:44;;;;;;;5.20;4.70;;;20.10;99.90;;;;;;5013704;28;20203;-73
2022/09/12 10:27:19;;;;;;;7.93;5.03;;;20.20;99.90;;;;;;4956028;28;20204;-73
2022/09/12 10:29:54;;;;;;;6.25;5.25;;;20.30;99.90;;;;;;5003624;28;20688;-73
2022/09/12 10:32:38;;;;;;;5.22;4.72;;;20.40;99.90;;;;;;5013610;28;20181;-72
2022/09/12 10:35:33;;;;;;;7.65;5.30;;;20.60;99.90;;;;;;5013110;28;20163;-72
2022/09/12 10:38:04;;;;;;;7.00;6.50;;;20.70;99.90;;;;;;5012152;28;20240;-71
2022/09/12 10:40:42;;;;;;;5.22;4.75;;;20.70;99.90;;;;;;5012823;28;20191;-71
2022/09/12 10:43:32;;;;;;;14.82;5.30;;;20.70;99.90;;;;;;5012833;28;20286;-71
2022/09/12 10:49:20;;;;;;;4.65;4.25;;;20.60;99.90;;;;;;4993844;28;20200;-71
2022/09/12 10:51:49;;;;;;;3.83;3.53;;;20.70;99.90;;;;;;5004447;28;20222;-72
2022/09/12 10:54:26;;;;;;;4.20;3.72;;;20.80;99.90;;;;;;5001335;28;20728;-73
2022/09/12 10:57:23;;;;;;;3.90;3.60;;;20.80;99.90;;;;;;4993266;28;20203;-72
2022/09/12 11:00:16;;;;;;;6.20;3.35;;;20.80;99.90;;;;;;4992295;28;20180;-72
2022/09/12 11:03:36;;;;;;;3.88;3.58;;;20.80;99.90;;;;;;4992205;28;20172;-72
2022/09/12 11:06:31;;;;;;;3.67;3.38;;;20.80;99.90;;;;;;4992806;28;20196;-72
2022/09/12 11:09:11;;;;;;;11.70;4.30;;;20.90;99.90;;;;;;4992438;28;20302;-72
2022/09/12 11:12:08;;;;;;;8.57;2.90;;;21.10;99.90;;;;;;4992190;28;20179;-73
2022/09/12 11:14:51;;;;;;;2.60;2.40;;;21.20;99.90;;;;;;4992102;28;20234;-73
2022/09/12 11:17:39;;;;;;;2.28;2.03;;;21.30;99.90;;;;;;4993025;28;20212;-73
2022/09/12 11:20:30;;;;;;;1.90;1.80;;;21.40;99.90;;;;;;4992968;28;20168;-73
2022/09/12 11:23:36;;;;;;;4.65;2.25;;;21.50;99.90;;;;;;4992865;28;20557;-72
2022/09/12 11:26:10;;;;;;;2.63;2.10;;;21.70;99.90;;;;;;5011447;28;20214;-72
2022/09/12 11:29:27;;;;;;;5.25;2.08;;;21.70;99.40;;;;;;5011946;28;20238;-73
2022/09/12 11:32:24;;;;;;;2.30;2.10;;;21.70;99.40;;;;;;5004923;28;20199;-73
2022/09/12 11:35:26;;;;;;;4.05;2.70;;;21.60;99.90;;;;;;4995975;28;20642;-73
2022/09/12 11:38:32;;;;;;;2.58;2.38;;;21.50;99.90;;;;;;5011207;28;20174;-73
2022/09/12 11:41:17;;;;;;;3.05;2.72;;;21.60;99.50;;;;;;5011318;28;20216;-73
2022/09/12 11:43:48;;;;;;;4.68;4.28;;;21.50;99.90;;;;;;5011472;28;20241;-73
2022/09/12 11:46:37;;;;;;;4.40;3.13;;;21.60;99.90;;;;;;5012195;28;20279;-76
2022/09/12 11:49:12;;;;;;;6.15;3.80;;;21.80;99.40;;;;;;5010912;28;20207;-73
2022/09/12 11:51:47;;;;;;;7.15;2.70;;;22.00;99.30;;;;;;5012820;28;20175;-72
2022/09/12 11:57:55;;;;;;;3.28;2.60;;;21.80;99.90;;;;;;5014525;28;20167;-73
2022/09/12 12:00:52;;;;;;;2.60;2.42;;;21.70;99.50;;;;;;5014523;28;20164;-73
2022/09/12 12:03:40;;;;;;;4.82;3.30;;;21.70;98.70;;;;;;5013114;28;20664;-73
2022/09/12 12:06:24;;;;;;;4.93;2.50;;;21.90;99.80;;;;;;5013965;28;20563;-73
2022/09/12 12:08:50;;;;;;;4.53;2.90;;;21.90;97.80;;;;;;5010754;28;20379;-73
2022/09/12 12:11:52;;;;;;;2.53;2.33;;;21.90;99.40;;;;;;5011423;28;20187;-74
2022/09/12 12:14:29;;;;;;;5.65;2.97;;;21.90;98.60;;;;;;5010839;28;20217;-74
2022/09/12 12:16:56;;;;;;;3.90;2.30;;;22.00;99.00;;;;;;5011220;28;20215;-73
2022/09/12 12:19:35;;;;;;;2.60;2.40;;;22.10;99.00;;;;;;5011903;28;20240;-73
2022/09/12 12:22:22;;;;;;;3.00;2.70;;;22.10;97.80;;;;;;5012362;28;20160;-72
2022/09/12 12:24:58;;;;;;;7.25;2.70;;;22.20;97.60;;;;;;5011599;28;20241;-73
2022/09/12 12:27:50;;;;;;;5.45;3.22;;;22.40;97.60;;;;;;5012514;28;20228;-74
2022/09/12 12:30:28;;;;;;;2.28;2.13;;;22.40;97.90;;;;;;5010571;28;20187;-72
2022/09/12 12:33:31;;;;;;;3.63;2.70;;;22.40;97.40;;;;;;5010431;28;20180;-72
2022/09/12 12:36:00;;;;;;;2.63;2.45;;;22.40;97.90;;;;;;5012381;28;20676;-72
2022/09/12 12:38:43;;;;;;;2.63;2.42;;;22.10;97.90;;;;;;5006548;28;20665;-71
2022/09/12 12:41:47;;;;;;;5.57;2.97;;;22.10;99.20;;;;;;5008046;28;20181;-72
2022/09/12 12:44:47;;;;;;;2.78;2.58;;;22.20;97.90;;;;;;5007935;28;20263;-72
2022/09/12 12:51:23;;;;;;;2.95;2.75;;;22.20;98.80;;;;;;4991729;28;20195;-71
2022/09/12 12:53:50;;;;;;;4.25;3.20;;;22.00;98.00;;;;;;4990298;28;20669;-78
2022/09/12 12:56:40;;;;;;;3.03;2.75;;;22.00;99.10;;;;;;5007029;28;20226;-72
2022/09/12 12:59:21;;;;;;;3.08;2.88;;;22.00;99.10;;;;;;5006906;28;20203;-72
2022/09/12 13:02:29;;;;;;;3.88;3.40;;;22.10;98.70;;;;;;5007222;28;20267;-71
2022/09/12 13:05:25;;;;;;;5.40;2.95;;;22.10;99.00;;;;;;5006550;28;20263;-72
2022/09/12 13:08:38;;;;;;;3.15;2.95;;;21.90;98.40;;;;;;4991829;28;20172;-72
2022/09/12 13:11:13;;;;;;;2.90;2.67;;;21.70;99.00;;;;;;4990834;28;20589;-71
2022/09/12 13:17:34;;;;;;;2.72;2.53;;;21.80;99.50;;;;;;4991445;28;20252;-72
2022/09/12 13:20:27;;;;;;;3.95;2.60;;;22.00;99.10;;;;;;4997073;28;20211;-71
2022/09/12 13:23:02;;;;;;;2.50;2.30;;;22.30;97.20;;;;;;5006341;28;20183;-71
2022/09/12 13:25:38;;;;;;;4.15;2.42;;;22.50;96.10;;;;;;5006325;28;20588;-72
2022/09/12 13:28:12;;;;;;;7.80;2.70;;;22.60;95.70;;;;;;4991791;28;20227;-73
2022/09/12 13:31:23;;;;;;;5.13;2.63;;;22.60;96.80;;;;;;4990063;28;20241;-74
2022/09/12 13:33:56;;;;;;;5.32;2.80;;;22.70;96.70;;;;;;5006298;28;20222;-74
2022/09/12 13:40:06;;;;;;;2.63;2.42;;;22.40;95.40;;;;;;4995435;28;20631;-74
2022/09/12 13:42:52;;;;;;;3.08;2.40;;;22.60;95.60;;;;;;4993375;28;20173;-74
2022/09/12 13:45:27;;;;;;;3.05;2.85;;;22.90;93.60;;;;;;5010468;28;20199;-73
2022/09/12 13:47:57;;;;;;;4.00;2.80;;;23.10;92.70;;;;;;5010146;28;20191;-73
2022/09/12 13:50:30;;;;;;;2.95;2.63;;;23.00;93.00;;;;;;4994689;28;20187;-73
2022/09/12 13:52:59;;;;;;;2.78;2.53;;;23.10;94.20;;;;;;5010263;28;20188;-74